Terminal Aerodrome Forecast
Issued by NWS

Home | Current Version | Previous Version | Text Only | Print | Product List | Glossary On
Versions: 1 2 3 4 5 6 7 8 9 10 11 12 13 14 15
000
FTUS44 KEPZ 211100
TAFDMN
TAF
KDMN 211135Z 2112/2212 29007KT P6SM FEW250
     FM211900 25008KT P6SM SCT070 SCT250
     FM212300 24012KT P6SM VCTS SCT060CB BKN150
      TEMPO 2123/2203 6SM -TSRA SCT025 BKN050CB=

USA.gov is the U.S. government's official web portal to all federal, state and local government web resources and services.